首页
METAR-TAF:

METAR-TAF

机场 :

雷烏斯, 西班牙

纬度: 41-09N, 经度: 001-10E, 海拔: 71米

当前天气观测

该预报发布于39分钟前的18:00 UTC
风速5节,风向,在东北南转南东之间变化
温度 29°C
湿度 43%
气压 1019 hPa
能见度10公里或以上
1500米以下无云,无积雨云

METAR: LERS 261800Z 09005KT 040V150 CAVOK 29/15 Q1019

时间: 20:39 (18:39 UTC)

预报

该预报发布于4小时和39分钟前的14:00 UTC
预报有效从26日的 15点(UTC)到 27日的 15点(UTC)
风速13节,风向
能见度10公里或以上
1500米以下无云,无积雨云
成为
从 26日的 19点(UTC)到 26日的 21点(UTC)
风速3节,风向多变
成为
从 27日的 08点(UTC)到 27日的 10点(UTC)
风速10节,风向东南

TAF: LERS 261400Z 2615/2715 10013KT CAVOK TX32/2712Z TN21/2705Z BECMG 2619/2621 VRB03KT BECMG 2708/2710 14010KT

超过4000个机场的气象观测和天气预报(METAR&TAF报告)。

可查询的气象台以黄色和红色小点在地图上表示。

将鼠标移到小点上方,可查看气象台名称。

然后点击查看天气观测和预报。

如需切换地图:点击带黑十字的绿色按钮放大地图;点击带横线的绿色按钮缩小地图;或者点击绿色箭头查看邻近地区的地图。


METAR-TAF: